Salten — LMFM — position and weather

sailwx.info

Track history (hours):
 
Tides and Currents Weather Stations Pressure Air Temp Water Temp Dewpoint Dewpoint Depression Visibility Wind Speed Wind Dir Waves Ship Positions

Salten

Last reported at 2015-Aug-03 15:34 UTC. Time now 2015-Aug-03 23:26 UTC.
Position N 67°24' E 014°26'.

Length 41 m; draft 2 m.

Type: High speed craft. MMSI: 259387000.

Date/timePositionNaut miles runAvg speedWind from/ knotsBaromVisibWave heightAir tempDewpointWater temp
2015-Aug-03 15:34N 67°24' E 014°26'7 7.0
2015-Aug-03 14:33N 67°17' E 014°22'0 0.0
2015-Aug-03 13:33N 67°17' E 014°22'0 0.0
2015-Aug-03 12:33N 67°17' E 014°22'0 0.0
2015-Aug-03 11:33N 67°17' E 014°22'0 0.0
2015-Aug-03 10:33N 67°17' E 014°22'0 0.0
2015-Aug-03 09:33N 67°17' E 014°22'0 0.0
2015-Aug-03 08:33N 67°17' E 014°22'8 7.8
2015-Aug-03 07:34N 67°25' E 014°27'13 1.0
2015-Aug-02 19:11N 67°37' E 014°38'2031.7
2015-Aug-02 18:34N 67°17' E 014°22'0 0.3
2015-Aug-02 17:33N 67°17' E 014°22'7 0.3
2015-Aug-01 15:33N 67°23' E 014°30'7 7.0
2015-Aug-01 14:33N 67°17' E 014°22'0 0.0
2015-Aug-01 13:33N 67°17' E 014°22'0 0.0
2015-Aug-01 12:33N 67°17' E 014°22'0 0.0
2015-Aug-01 11:33N 67°17' E 014°22'0 0.0
2015-Aug-01 10:33N 67°17' E 014°22'1211.9
2015-Aug-01 09:33N 67°08' E 014°02'4314.1
2015-Aug-01 06:32N 66°34' E 012°58'14 1.1
2015-Jul-31 18:32N 66°20' E 012°59'3711.7
2015-Jul-31 15:24N 66°54' E 013°31'1517.7
2015-Jul-31 14:33N 67°06' E 013°56'1515.2
2015-Jul-31 13:33N 67°17' E 014°22'0 0.0
2015-Jul-31 12:33N 67°17' E 014°22'0 0.0
2015-Jul-31 11:33N 67°17' E 014°22'0 0.0
2015-Jul-31 10:33N 67°17' E 014°22'1111.5
2015-Jul-31 09:33N 67°09' E 014°01'4514.9
2015-Jul-31 06:32N 66°32' E 012°58'15 1.2
2015-Jul-30 18:30N 66°17' E 012°55'4013.6
2015-Jul-30 15:33N 66°54' E 013°32'1818.2
2015-Jul-30 14:33N 67°07' E 014°02'1212.3
2015-Jul-30 13:33N 67°17' E 014°22'0 0.0
2015-Jul-30 12:33N 67°17' E 014°22'0 0.0
2015-Jul-30 11:33N 67°17' E 014°22'0 0.0
2015-Jul-30 10:33N 67°17' E 014°22'9 9.0
2015-Jul-30 09:33N 67°11' E 014°05'4815.6
2015-Jul-30 06:30N 66°31' E 013°00'10 0.8
2015-Jul-29 18:28N 66°21' E 012°59'1010.8
2015-Jul-29 17:32N 66°31' E 013°00'2712.5
2015-Jul-29 15:25N 66°54' E 013°34'1517.6
2015-Jul-29 14:33N 67°06' E 013°57'1514.9
2015-Jul-29 13:33N 67°17' E 014°22'0 0.0
2015-Jul-29 12:33N 67°17' E 014°22'0 0.0
2015-Jul-29 11:34N 67°17' E 014°22'0 0.0
2015-Jul-29 10:33N 67°17' E 014°22'0 0.0
2015-Jul-29 09:33N 67°17' E 014°22'0 0.0
2015-Jul-29 08:33N 67°17' E 014°22'1211.7
2015-Jul-29 07:33N 67°28' E 014°35'4 0.2
2015-Jul-28 15:34N 67°24' E 014°31'8 7.8
2015-Jul-28 14:34N 67°17' E 014°22'0 0.0
2015-Jul-28 13:33N 67°17' E 014°22'0 0.0
2015-Jul-28 12:34N 67°17' E 014°22'0 0.0
2015-Jul-28 11:34N 67°17' E 014°22'0 0.1
2015-Jul-28 10:33N 67°17' E 014°23'1313.0
2015-Jul-28 09:33N 67°08' E 013°59'4514.2
2015-Jul-28 06:24N 66°30' E 012°59'9 0.8
2015-Jul-27 18:33N 66°21' E 012°57'3611.5
2015-Jul-27 15:26N 66°54' E 013°31'1618.3
2015-Jul-27 14:33N 67°06' E 013°58'1414.4
2015-Jul-27 13:33N 67°17' E 014°22'0 0.0
2015-Jul-27 12:33N 67°17' E 014°22'0 0.0
2015-Jul-27 11:33N 67°17' E 014°22'0 0.0
2015-Jul-27 10:33N 67°17' E 014°22'8 7.8
2015-Jul-27 09:33N 67°12' E 014°08'3816.2
2015-Jul-27 07:12N 66°40' E 013°12'1016.1
2015-Jul-27 06:33N 66°32' E 012°58'13 0.9
2015-Jul-26 15:20N 66°18' E 012°53'1316.4
2015-Jul-26 14:33N 66°31' E 013°00'2612.2
2015-Jul-26 12:23N 66°54' E 013°32'1721.0
2015-Jul-26 11:33N 67°08' E 013°58'1313.0
2015-Jul-26 10:33N 67°17' E 014°22'0 0.0
2015-Jul-26 09:34N 67°17' E 014°22'0 0.0
2015-Jul-26 08:33N 67°17' E 014°22'0 0.0
2015-Jul-26 07:34N 67°17' E 014°22'0 0.0
2015-Jul-26 06:33N 67°17' E 014°22'0 0.0
2015-Jul-26 05:34N 67°17' E 014°22'0 0.0
2015-Jul-26 04:33N 67°17' E 014°22'0 0.0
2015-Jul-26 03:34N 67°17' E 014°22'0 0.0
2015-Jul-26 02:33N 67°17' E 014°22'0 0.0
2015-Jul-26 01:33N 67°17' E 014°22'0 0.0
2015-Jul-26 00:33N 67°17' E 014°22'0 0.0
2015-Jul-25 23:34N 67°17' E 014°22'0 0.0
2015-Jul-25 22:33N 67°17' E 014°22'0 0.0
2015-Jul-25 21:34N 67°17' E 014°22'0 0.0
2015-Jul-25 20:34N 67°17' E 014°22'0 0.0
2015-Jul-25 19:34N 67°17' E 014°22'0 0.0
2015-Jul-25 18:33N 67°17' E 014°22'0 0.0
2015-Jul-25 17:33N 67°17' E 014°22'0 0.0
2015-Jul-25 16:33N 67°17' E 014°22'0 0.0
2015-Jul-25 15:33N 67°17' E 014°22'0 0.0
2015-Jul-25 14:33N 67°17' E 014°22'0 0.0
2015-Jul-25 13:34N 67°17' E 014°22'0 0.0
2015-Jul-25 12:33N 67°17' E 014°22'0 0.0
2015-Jul-25 11:33N 67°17' E 014°22'0 0.0
2015-Jul-25 10:33N 67°17' E 014°22'0 0.0
2015-Jul-25 09:34N 67°17' E 014°22'0 0.4
2015-Jul-25 08:33N 67°17' E 014°23'1816.8
2015-Jul-25 07:27N 67°34' E 014°44'5 0.3
2015-Jul-24 16:34N 67°30' E 014°38'  
Track history (hours):
 
Tides and Currents Weather Stations Pressure Air Temp Water Temp Dewpoint Dewpoint Depression Visibility Wind Speed Wind Dir Waves Ship Positions

Salten

Last reported at 2015-Aug-03 15:34 UTC. Time now 2015-Aug-03 23:26 UTC.
Position N 67°24' E 014°26'.

Length 41 m; draft 2 m.

Type: High speed craft. MMSI: 259387000.

Date/timePositionNaut miles runAvg speedWind from/ knotsBaromVisibWave heightAir tempDewpointWater temp
2015-Aug-03 15:34N 67°24' E 014°26'7 7.0
2015-Aug-03 14:33N 67°17' E 014°22'0 0.0
2015-Aug-03 13:33N 67°17' E 014°22'0 0.0
2015-Aug-03 12:33N 67°17' E 014°22'0 0.0
2015-Aug-03 11:33N 67°17' E 014°22'0 0.0
2015-Aug-03 10:33N 67°17' E 014°22'0 0.0
2015-Aug-03 09:33N 67°17' E 014°22'0 0.0
2015-Aug-03 08:33N 67°17' E 014°22'8 7.8
2015-Aug-03 07:34N 67°25' E 014°27'13 1.0
2015-Aug-02 19:11N 67°37' E 014°38'2031.7
2015-Aug-02 18:34N 67°17' E 014°22'0 0.3
2015-Aug-02 17:33N 67°17' E 014°22'7 0.3
2015-Aug-01 15:33N 67°23' E 014°30'7 7.0
2015-Aug-01 14:33N 67°17' E 014°22'0 0.0
2015-Aug-01 13:33N 67°17' E 014°22'0 0.0
2015-Aug-01 12:33N 67°17' E 014°22'0 0.0
2015-Aug-01 11:33N 67°17' E 014°22'0 0.0
2015-Aug-01 10:33N 67°17' E 014°22'1211.9
2015-Aug-01 09:33N 67°08' E 014°02'4314.1
2015-Aug-01 06:32N 66°34' E 012°58'14 1.1
2015-Jul-31 18:32N 66°20' E 012°59'3711.7
2015-Jul-31 15:24N 66°54' E 013°31'1517.7
2015-Jul-31 14:33N 67°06' E 013°56'1515.2
2015-Jul-31 13:33N 67°17' E 014°22'0 0.0
2015-Jul-31 12:33N 67°17' E 014°22'0 0.0
2015-Jul-31 11:33N 67°17' E 014°22'0 0.0
2015-Jul-31 10:33N 67°17' E 014°22'1111.5
2015-Jul-31 09:33N 67°09' E 014°01'4514.9
2015-Jul-31 06:32N 66°32' E 012°58'15 1.2
2015-Jul-30 18:30N 66°17' E 012°55'4013.6
2015-Jul-30 15:33N 66°54' E 013°32'1818.2
2015-Jul-30 14:33N 67°07' E 014°02'1212.3
2015-Jul-30 13:33N 67°17' E 014°22'0 0.0
2015-Jul-30 12:33N 67°17' E 014°22'0 0.0
2015-Jul-30 11:33N 67°17' E 014°22'0 0.0
2015-Jul-30 10:33N 67°17' E 014°22'9 9.0
2015-Jul-30 09:33N 67°11' E 014°05'4815.6
2015-Jul-30 06:30N 66°31' E 013°00'10 0.8
2015-Jul-29 18:28N 66°21' E 012°59'1010.8
2015-Jul-29 17:32N 66°31' E 013°00'2712.5
2015-Jul-29 15:25N 66°54' E 013°34'1517.6
2015-Jul-29 14:33N 67°06' E 013°57'1514.9
2015-Jul-29 13:33N 67°17' E 014°22'0 0.0
2015-Jul-29 12:33N 67°17' E 014°22'0 0.0
2015-Jul-29 11:34N 67°17' E 014°22'0 0.0
2015-Jul-29 10:33N 67°17' E 014°22'0 0.0
2015-Jul-29 09:33N 67°17' E 014°22'0 0.0
2015-Jul-29 08:33N 67°17' E 014°22'1211.7
2015-Jul-29 07:33N 67°28' E 014°35'4 0.2
2015-Jul-28 15:34N 67°24' E 014°31'8 7.8
2015-Jul-28 14:34N 67°17' E 014°22'0 0.0
2015-Jul-28 13:33N 67°17' E 014°22'0 0.0
2015-Jul-28 12:34N 67°17' E 014°22'0 0.0
2015-Jul-28 11:34N 67°17' E 014°22'0 0.1
2015-Jul-28 10:33N 67°17' E 014°23'1313.0
2015-Jul-28 09:33N 67°08' E 013°59'4514.2
2015-Jul-28 06:24N 66°30' E 012°59'9 0.8
2015-Jul-27 18:33N 66°21' E 012°57'3611.5
2015-Jul-27 15:26N 66°54' E 013°31'1618.3
2015-Jul-27 14:33N 67°06' E 013°58'1414.4
2015-Jul-27 13:33N 67°17' E 014°22'0 0.0
2015-Jul-27 12:33N 67°17' E 014°22'0 0.0
2015-Jul-27 11:33N 67°17' E 014°22'0 0.0
2015-Jul-27 10:33N 67°17' E 014°22'8 7.8
2015-Jul-27 09:33N 67°12' E 014°08'3816.2
2015-Jul-27 07:12N 66°40' E 013°12'1016.1
2015-Jul-27 06:33N 66°32' E 012°58'13 0.9
2015-Jul-26 15:20N 66°18' E 012°53'1316.4
2015-Jul-26 14:33N 66°31' E 013°00'2612.2
2015-Jul-26 12:23N 66°54' E 013°32'1721.0
2015-Jul-26 11:33N 67°08' E 013°58'1313.0
2015-Jul-26 10:33N 67°17' E 014°22'0 0.0
2015-Jul-26 09:34N 67°17' E 014°22'0 0.0
2015-Jul-26 08:33N 67°17' E 014°22'0 0.0
2015-Jul-26 07:34N 67°17' E 014°22'0 0.0
2015-Jul-26 06:33N 67°17' E 014°22'0 0.0
2015-Jul-26 05:34N 67°17' E 014°22'0 0.0
2015-Jul-26 04:33N 67°17' E 014°22'0 0.0
2015-Jul-26 03:34N 67°17' E 014°22'0 0.0
2015-Jul-26 02:33N 67°17' E 014°22'0 0.0
2015-Jul-26 01:33N 67°17' E 014°22'0 0.0
2015-Jul-26 00:33N 67°17' E 014°22'0 0.0
2015-Jul-25 23:34N 67°17' E 014°22'0 0.0
2015-Jul-25 22:33N 67°17' E 014°22'0 0.0
2015-Jul-25 21:34N 67°17' E 014°22'0 0.0
2015-Jul-25 20:34N 67°17' E 014°22'0 0.0
2015-Jul-25 19:34N 67°17' E 014°22'0 0.0
2015-Jul-25 18:33N 67°17' E 014°22'0 0.0
2015-Jul-25 17:33N 67°17' E 014°22'0 0.0
2015-Jul-25 16:33N 67°17' E 014°22'0 0.0
2015-Jul-25 15:33N 67°17' E 014°22'0 0.0
2015-Jul-25 14:33N 67°17' E 014°22'0 0.0
2015-Jul-25 13:34N 67°17' E 014°22'0 0.0
2015-Jul-25 12:33N 67°17' E 014°22'0 0.0
2015-Jul-25 11:33N 67°17' E 014°22'0 0.0
2015-Jul-25 10:33N 67°17' E 014°22'0 0.0
2015-Jul-25 09:34N 67°17' E 014°22'0 0.4
2015-Jul-25 08:33N 67°17' E 014°23'1816.8
2015-Jul-25 07:27N 67°34' E 014°44'5 0.3
2015-Jul-24 16:34N 67°30' E 014°38'  

Dump ship's entire track history